Time;durP1;ratioP1;P1;durP2;ratioP2;P2;SDS_P1;SDS_P2;PMS_P1;PMS_P2;Temp;Humidity;BMP_temperature;BMP_pressure;BME280_temperature;BME280_humidity;BME280_pressure;Samples;Min_cycle;Max_cycle;Signal;HPM_P1;HPM_P2
2023/02/21 02:13:59;;;;;;;1.67;1.45;;;;;;;;;;5036081;28;20502;-82
2023/02/21 02:16:27;;;;;;;2.72;1.73;;;;;;;;;;5035927;28;20057;-83
2023/02/21 02:19:02;;;;;;;1.70;1.60;;;;;;;;;;5035664;28;20120;-82
2023/02/21 02:21:51;;;;;;;2.90;1.70;;;;;;;;;;5035526;28;20045;-82
2023/02/21 02:24:21;;;;;;;3.83;1.50;;;;;;;;;;5037161;28;20048;-82
2023/02/21 02:26:51;;;;;;;1.60;1.45;;;;;;;;;;5036404;28;20057;-83
2023/02/21 02:29:23;;;;;;;1.42;1.33;;;;;;;;;;5036887;28;20389;-82
2023/02/21 02:31:59;;;;;;;1.63;1.50;;;;;;;;;;5035480;28;20050;-82
2023/02/21 02:34:27;;;;;;;3.63;1.70;;;;;;;;;;5035451;28;20105;-83
2023/02/21 02:37:12;;;;;;;1.70;1.60;;;;;;;;;;5036803;28;20050;-83
2023/02/21 02:39:42;;;;;;;1.80;1.60;;;;;;;;;;5035272;28;20072;-83
2023/02/21 02:42:20;;;;;;;2.83;1.75;;;;;;;;;;5035502;28;20045;-82
2023/02/21 02:44:53;;;;;;;2.55;1.42;;;;;;;;;;5035461;28;20057;-82
2023/02/21 02:47:26;;;;;;;1.20;1.15;;;;;;;;;;5036770;28;20067;-82
2023/02/21 02:49:54;;;;;;;2.45;1.40;;;;;;;;;;5036220;28;20057;-82
2023/02/21 02:52:21;;;;;;;3.80;1.25;;;;;;;;;;5035914;28;20474;-82
2023/02/21 02:55:02;;;;;;;2.10;1.30;;;;;;;;;;5036190;28;20068;-82
2023/02/21 02:57:39;;;;;;;1.50;1.40;;;;;;;;;;5035084;28;20099;-83
2023/02/21 03:00:09;;;;;;;1.33;1.23;;;;;;;;;;5036252;28;20046;-83
2023/02/21 03:02:46;;;;;;;2.05;1.25;;;;;;;;;;5035939;28;20057;-83
2023/02/21 03:05:25;;;;;;;3.33;1.40;;;;;;;;;;5036234;28;20053;-83
2023/02/21 03:07:52;;;;;;;4.32;1.52;;;;;;;;;;5035289;28;20041;-82
2023/02/21 03:10:29;;;;;;;3.13;1.50;;;;;;;;;;5036534;28;20140;-83
2023/02/21 03:12:59;;;;;;;2.15;1.95;;;;;;;;;;5035103;28;20136;-82
2023/02/21 03:15:47;;;;;;;5.85;3.22;;;;;;;;;;5035225;28;20140;-82
2023/02/21 03:18:14;;;;;;;3.30;2.10;;;;;;;;;;5035737;28;20128;-83
2023/02/21 03:20:42;;;;;;;2.15;1.73;;;;;;;;;;5035475;28;20049;-83
2023/02/21 03:23:12;;;;;;;4.35;2.00;;;;;;;;;;5034892;28;20049;-83
2023/02/21 03:25:40;;;;;;;2.60;2.25;;;;;;;;;;5035300;28;20407;-82
2023/02/21 03:28:07;;;;;;;2.30;2.13;;;;;;;;;;5035989;28;20049;-82
2023/02/21 03:30:35;;;;;;;3.33;2.30;;;;;;;;;;5035958;28;20132;-82
2023/02/21 03:33:02;;;;;;;2.53;2.00;;;;;;;;;;5045028;28;20041;-83
2023/02/21 03:35:30;;;;;;;2.70;2.20;;;;;;;;;;5057384;28;20034;-83
2023/02/21 03:37:57;;;;;;;3.08;2.65;;;;;;;;;;5049560;28;20379;-82
2023/02/21 03:40:24;;;;;;;3.30;2.92;;;;;;;;;;5034463;28;20496;-82
2023/02/21 03:42:52;;;;;;;3.17;2.20;;;;;;;;;;5033756;28;20107;-83
2023/02/21 03:45:19;;;;;;;3.30;2.28;;;;;;;;;;5034805;28;20478;-82
2023/02/21 03:47:47;;;;;;;2.65;2.35;;;;;;;;;;5034025;28;20051;-83
2023/02/21 03:50:14;;;;;;;2.92;2.45;;;;;;;;;;5034054;28;20413;-83
2023/02/21 03:52:42;;;;;;;3.97;2.47;;;;;;;;;;5033767;28;20102;-83
2023/02/21 03:55:09;;;;;;;2.70;2.50;;;;;;;;;;5034873;28;20486;-83
2023/02/21 03:57:36;;;;;;;3.08;2.58;;;;;;;;;;5033690;28;20136;-83
2023/02/21 04:00:04;;;;;;;3.47;2.90;;;;;;;;;;5033805;28;20405;-82
2023/02/21 04:02:31;;;;;;;4.38;2.85;;;;;;;;;;5033651;28;20049;-83
2023/02/21 04:04:59;;;;;;;4.75;3.05;;;;;;;;;;5033721;28;20049;-82
2023/02/21 04:07:26;;;;;;;3.72;3.33;;;;;;;;;;5034959;28;20107;-82
2023/02/21 04:09:54;;;;;;;3.22;2.92;;;;;;;;;;5035475;28;20045;-83
2023/02/21 04:12:21;;;;;;;5.03;3.90;;;;;;;;;;5034765;28;20054;-83
2023/02/21 04:14:48;;;;;;;5.45;3.42;;;;;;;;;;5034412;28;20088;-83
2023/02/21 04:17:16;;;;;;;3.30;2.95;;;;;;;;;;5034634;28;20053;-82
2023/02/21 04:19:43;;;;;;;3.33;2.63;;;;;;;;;;5033260;28;20148;-82
2023/02/21 04:22:10;;;;;;;3.75;2.83;;;;;;;;;;5033673;28;20087;-81
2023/02/21 04:24:37;;;;;;;3.65;3.35;;;;;;;;;;5033803;28;20056;-82
2023/02/21 04:27:06;;;;;;;4.32;3.38;;;;;;;;;;5034385;28;20056;-82
2023/02/21 04:29:33;;;;;;;3.90;2.70;;;;;;;;;;5034049;28;20049;-82
2023/02/21 04:32:01;;;;;;;4.38;2.70;;;;;;;;;;5033307;28;20124;-82
2023/02/21 04:34:29;;;;;;;4.20;2.65;;;;;;;;;;5032946;28;20049;-82
2023/02/21 04:36:56;;;;;;;5.28;3.20;;;;;;;;;;5033135;28;20132;-82
2023/02/21 04:39:23;;;;;;;4.10;3.70;;;;;;;;;;5033158;28;20051;-81
2023/02/21 04:41:51;;;;;;;4.82;3.10;;;;;;;;;;5034419;28;20409;-81
2023/02/21 04:44:18;;;;;;;3.50;3.20;;;;;;;;;;5034298;28;20078;-82
2023/02/21 04:46:45;;;;;;;3.45;2.55;;;;;;;;;;5033627;28;20050;-82
2023/02/21 04:49:13;;;;;;;5.43;3.42;;;;;;;;;;5032565;28;20071;-81
2023/02/21 04:51:40;;;;;;;6.75;2.92;;;;;;;;;;5034254;28;20510;-81
2023/02/21 04:54:07;;;;;;;8.73;3.15;;;;;;;;;;5033021;28;20080;-82
2023/02/21 04:56:36;;;;;;;4.72;4.30;;;;;;;;;;5032757;28;20405;-81
2023/02/21 04:59:03;;;;;;;5.57;3.85;;;;;;;;;;5032926;28;20493;-82
2023/02/21 05:01:31;;;;;;;7.90;3.20;;;;;;;;;;5032550;28;20053;-82
2023/02/21 05:03:59;;;;;;;4.30;3.33;;;;;;;;;;5033046;28;20041;-82
2023/02/21 05:06:27;;;;;;;11.27;3.10;;;;;;;;;;5032798;28;20504;-82
2023/02/21 05:08:54;;;;;;;5.68;3.10;;;;;;;;;;5034452;28;20414;-82
2023/02/21 05:11:22;;;;;;;3.67;2.97;;;;;;;;;;5035028;28;20045;-81
2023/02/21 05:13:49;;;;;;;6.38;3.47;;;;;;;;;;5036101;28;20062;-81
2023/02/21 05:16:19;;;;;;;4.05;2.67;;;;;;;;;;5038131;28;20048;-82
2023/02/21 05:18:47;;;;;;;4.15;3.05;;;;;;;;;;5039642;28;20050;-82
2023/02/21 05:21:15;;;;;;;7.10;3.70;;;;;;;;;;5040185;28;20045;-81
2023/02/21 05:23:54;;;;;;;5.75;3.92;;;;;;;;;;5046329;28;20093;-81
2023/02/21 05:26:24;;;;;;;5.18;3.53;;;;;;;;;;5055643;28;20157;-82
2023/02/21 05:28:54;;;;;;;5.05;3.60;;;;;;;;;;5045307;28;20045;-82
2023/02/21 05:31:21;;;;;;;9.73;4.80;;;;;;;;;;5039364;28;20249;-81
2023/02/21 05:33:48;;;;;;;9.55;4.60;;;;;;;;;;5038001;28;20078;-81
2023/02/21 05:36:16;;;;;;;6.30;4.53;;;;;;;;;;5039981;28;20045;-81
2023/02/21 05:38:48;;;;;;;9.00;4.72;;;;;;;;;;5039415;28;20183;-82
2023/02/21 05:41:16;;;;;;;8.20;4.53;;;;;;;;;;5042761;28;20077;-82
2023/02/21 05:43:44;;;;;;;10.45;4.22;;;;;;;;;;5043995;28;20064;-81
2023/02/21 05:46:19;;;;;;;9.02;3.67;;;;;;;;;;5044859;28;20053;-82
2023/02/21 05:48:46;;;;;;;6.55;3.28;;;;;;;;;;5044885;28;20115;-82
2023/02/21 05:51:14;;;;;;;4.53;3.55;;;;;;;;;;5047007;28;20045;-82
2023/02/21 05:53:42;;;;;;;8.57;4.05;;;;;;;;;;5045230;28;20072;-82
2023/02/21 05:56:11;;;;;;;7.88;4.30;;;;;;;;;;5046777;28;20045;-82
2023/02/21 05:58:38;;;;;;;5.47;3.50;;;;;;;;;;5045990;28;20117;-81
2023/02/21 06:01:06;;;;;;;5.60;4.00;;;;;;;;;;5044333;28;20072;-82
2023/02/21 06:03:33;;;;;;;11.18;3.78;;;;;;;;;;5043599;28;20060;-82
2023/02/21 06:06:02;;;;;;;7.93;4.00;;;;;;;;;;5045126;28;20105;-82
2023/02/21 06:08:29;;;;;;;4.22;3.47;;;;;;;;;;5045654;28;20386;-81
2023/02/21 06:10:57;;;;;;;5.25;4.43;;;;;;;;;;5046849;28;20049;-82
2023/02/21 06:13:25;;;;;;;6.22;4.68;;;;;;;;;;5045629;28;20109;-82
2023/02/21 06:15:54;;;;;;;27.33;13.93;;;;;;;;;;5045565;28;20088;-82
2023/02/21 06:18:21;;;;;;;18.77;10.35;;;;;;;;;;5045271;28;20575;-82
2023/02/21 06:20:51;;;;;;;17.42;9.43;;;;;;;;;;5046091;28;20053;-82
2023/02/21 06:23:18;;;;;;;12.23;6.75;;;;;;;;;;5045431;28;20137;-82
2023/02/21 06:25:45;;;;;;;9.27;5.80;;;;;;;;;;5045528;28;20116;-81
2023/02/21 06:28:12;;;;;;;6.65;3.90;;;;;;;;;;5045618;28;20117;-82
2023/02/21 06:30:40;;;;;;;9.57;3.83;;;;;;;;;;5044901;28;20049;-82
2023/02/21 06:33:07;;;;;;;5.32;4.00;;;;;;;;;;5047080;28;20063;-82
2023/02/21 06:35:34;;;;;;;9.10;4.10;;;;;;;;;;5046245;28;20052;-81
2023/02/21 06:38:02;;;;;;;9.48;3.70;;;;;;;;;;5045509;28;20058;-82
2023/02/21 06:40:29;;;;;;;6.28;3.92;;;;;;;;;;5045429;28;20128;-82
2023/02/21 06:42:57;;;;;;;6.80;3.65;;;;;;;;;;5046109;28;20049;-82
2023/02/21 06:45:24;;;;;;;6.88;3.88;;;;;;;;;;5045025;28;20046;-82
2023/02/21 06:47:51;;;;;;;7.07;4.10;;;;;;;;;;5045023;28;20072;-82
2023/02/21 06:50:19;;;;;;;5.47;3.88;;;;;;;;;;5044906;28;20049;-82
2023/02/21 06:52:46;;;;;;;5.00;4.05;;;;;;;;;;5044520;28;20113;-82
2023/02/21 06:55:13;;;;;;;7.30;4.20;;;;;;;;;;5045661;28;20100;-82
2023/02/21 06:57:40;;;;;;;6.28;4.40;;;;;;;;;;5046353;28;20051;-82
2023/02/21 07:00:08;;;;;;;13.45;8.38;;;;;;;;;;5045395;28;20064;-82
2023/02/21 07:02:37;;;;;;;19.60;12.70;;;;;;;;;;5044520;28;20092;-82
2023/02/21 07:05:05;;;;;;;24.00;12.65;;;;;;;;;;5044472;28;20045;-81
2023/02/21 07:07:33;;;;;;;13.18;6.53;;;;;;;;;;5046665;28;20049;-82
2023/02/21 07:10:00;;;;;;;29.73;7.05;;;;;;;;;;5044387;28;20045;-82
2023/02/21 07:12:28;;;;;;;15.95;8.77;;;;;;;;;;5044450;28;20144;-82
2023/02/21 07:14:55;;;;;;;63.75;46.33;;;;;;;;;;5049737;28;20053;-82
2023/02/21 07:17:22;;;;;;;17.50;13.73;;;;;;;;;;5055946;28;20060;-82
2023/02/21 07:19:51;;;;;;;28.52;19.83;;;;;;;;;;5047198;28;20056;-81
2023/02/21 07:22:24;;;;;;;13.60;9.52;;;;;;;;;;5044308;28;20486;-82
2023/02/21 07:24:53;;;;;;;18.48;8.70;;;;;;;;;;5044074;28;20072;-82
2023/02/21 07:27:20;;;;;;;20.08;10.70;;;;;;;;;;5044035;28;20053;-81
2023/02/21 07:29:48;;;;;;;8.60;6.22;;;;;;;;;;5044986;28;20049;-81
2023/02/21 07:32:16;;;;;;;11.90;7.47;;;;;;;;;;5043368;28;20059;-82
2023/02/21 07:34:44;;;;;;;9.27;6.22;;;;;;;;;;5044443;28;20063;-82
2023/02/21 07:37:11;;;;;;;6.35;5.68;;;;;;;;;;5044719;28;20077;-82
2023/02/21 07:39:39;;;;;;;7.38;6.05;;;;;;;;;;5044538;28;20109;-83
2023/02/21 07:42:09;;;;;;;20.75;9.20;;;;;;;;;;5044733;28;20150;-82
2023/02/21 07:44:39;;;;;;;25.40;8.50;;;;;;;;;;5045321;28;20058;-82
2023/02/21 07:47:06;;;;;;;21.58;7.93;;;;;;;;;;5042852;28;20049;-82
2023/02/21 07:49:37;;;;;;;20.58;7.07;;;;;;;;;;5042534;28;20105;-81
2023/02/21 07:52:05;;;;;;;7.50;5.53;;;;;;;;;;5044908;28;20046;-82
2023/02/21 07:54:33;;;;;;;13.07;5.50;;;;;;;;;;5027332;28;20045;-82
2023/02/21 07:57:00;;;;;;;10.38;6.43;;;;;;;;;;5044705;28;20547;-82
2023/02/21 07:59:28;;;;;;;15.85;7.45;;;;;;;;;;5043687;28;20053;-82
2023/02/21 08:01:55;;;;;;;16.27;6.60;;;;;;;;;;5043198;28;20056;-82
2023/02/21 08:04:23;;;;;;;10.85;5.85;;;;;;;;;;5045577;28;20053;-82
2023/02/21 08:06:50;;;;;;;8.80;5.95;;;;;;;;;;5049397;28;20049;-81
2023/02/21 08:09:17;;;;;;;11.18;6.90;;;;;;;;;;5047312;28;20069;-82
2023/02/21 08:11:45;;;;;;;9.65;5.90;;;;;;;;;;5064039;28;20107;-82
2023/02/21 08:14:13;;;;;;;10.23;5.50;;;;;;;;;;5039668;28;20057;-82
2023/02/21 08:16:40;;;;;;;8.65;5.05;;;;;;;;;;5027435;28;20049;-82
2023/02/21 08:19:08;;;;;;;9.38;4.00;;;;;;;;;;5028076;28;20045;-82
2023/02/21 08:21:35;;;;;;;7.90;4.53;;;;;;;;;;5027196;28;20072;-83
2023/02/21 08:24:03;;;;;;;4.35;3.95;;;;;;;;;;5047479;28;20497;-82
2023/02/21 08:26:30;;;;;;;5.90;4.35;;;;;;;;;;5044665;28;20067;-82
2023/02/21 08:28:57;;;;;;;6.85;4.80;;;;;;;;;;5028123;28;20509;-82
2023/02/21 08:31:25;;;;;;;8.02;3.78;;;;;;;;;;5028164;28;20049;-82
2023/02/21 08:33:53;;;;;;;13.50;4.18;;;;;;;;;;5046431;28;20068;-82
2023/02/21 08:36:20;;;;;;;10.90;3.55;;;;;;;;;;5029373;28;20395;-82
2023/02/21 08:38:48;;;;;;;12.43;6.28;;;;;;;;;;5027721;28;20363;-82
2023/02/21 08:41:15;;;;;;;9.48;4.50;;;;;;;;;;5027097;28;20080;-83
2023/02/21 08:43:43;;;;;;;13.90;6.63;;;;;;;;;;5026208;28;20162;-82
2023/02/21 08:46:14;;;;;;;23.45;7.30;;;;;;;;;;5030672;28;20612;-83
2023/02/21 08:48:42;;;;;;;12.10;7.05;;;;;;;;;;5046314;28;20061;-82
2023/02/21 08:51:11;;;;;;;7.22;5.38;;;;;;;;;;5030400;28;20101;-82
2023/02/21 08:53:40;;;;;;;10.88;5.13;;;;;;;;;;5028212;28;20056;-83
2023/02/21 08:56:07;;;;;;;9.10;5.40;;;;;;;;;;5029353;28;20053;-83
2023/02/21 08:58:34;;;;;;;8.25;5.10;;;;;;;;;;5028954;28;20053;-82
2023/02/21 09:01:07;;;;;;;6.97;4.80;;;;;;;;;;5029834;28;20045;-82
2023/02/21 09:03:34;;;;;;;7.55;5.60;;;;;;;;;;5031910;28;20053;-82
2023/02/21 09:06:02;;;;;;;5.68;4.63;;;;;;;;;;5039608;28;20049;-82
2023/02/21 09:08:30;;;;;;;6.97;4.13;;;;;;;;;;5040021;28;20037;-82
2023/02/21 09:10:59;;;;;;;10.95;5.28;;;;;;;;;;5029117;28;20105;-82
2023/02/21 09:13:28;;;;;;;8.82;4.53;;;;;;;;;;5029190;28;20453;-82
2023/02/21 09:16:02;;;;;;;5.75;4.93;;;;;;;;;;5048218;28;20057;-83
2023/02/21 09:18:29;;;;;;;7.70;4.40;;;;;;;;;;5050899;28;20102;-82
2023/02/21 09:20:58;;;;;;;5.72;4.47;;;;;;;;;;5053453;28;20101;-83
2023/02/21 09:23:26;;;;;;;21.80;5.22;;;;;;;;;;5031979;28;20058;-82
2023/02/21 09:25:55;;;;;;;14.60;5.20;;;;;;;;;;5049175;28;20080;-83
2023/02/21 09:28:22;;;;;;;8.73;4.07;;;;;;;;;;5049712;28;20383;-83
2023/02/21 09:30:49;;;;;;;6.22;4.03;;;;;;;;;;5049186;28;20049;-83
2023/02/21 09:33:17;;;;;;;4.78;3.88;;;;;;;;;;5028674;28;20057;-82
2023/02/21 09:35:44;;;;;;;5.03;4.32;;;;;;;;;;5047732;28;20053;-82
2023/02/21 09:38:12;;;;;;;4.45;3.40;;;;;;;;;;5029549;28;20053;-83
2023/02/21 09:40:40;;;;;;;8.05;4.20;;;;;;;;;;5029966;28;20149;-83
2023/02/21 09:43:10;;;;;;;4.13;3.50;;;;;;;;;;5048315;28;20073;-83
2023/02/21 09:45:38;;;;;;;7.25;4.15;;;;;;;;;;5030446;28;20076;-83
2023/02/21 09:48:08;;;;;;;4.45;4.05;;;;;;;;;;5047535;28;20049;-83
2023/02/21 09:50:40;;;;;;;7.93;4.07;;;;;;;;;;5029673;28;20113;-83
2023/02/21 09:53:09;;;;;;;5.53;4.35;;;;;;;;;;5048051;28;20069;-83
2023/02/21 09:55:38;;;;;;;5.50;4.00;;;;;;;;;;5014742;28;20084;-83
2023/02/21 09:58:10;;;;;;;5.63;4.18;;;;;;;;;;5030359;28;20053;-83
2023/02/21 10:00:38;;;;;;;10.33;5.03;;;;;;;;;;5026485;28;20141;-82
2023/02/21 10:03:23;;;;;;;5.97;3.97;;;;;;;;;;5045428;28;20446;-82
2023/02/21 10:06:02;;;;;;;6.82;4.40;;;;;;;;;;5027573;28;20076;-81
2023/02/21 10:08:48;;;;;;;4.57;3.95;;;;;;;;;;5028219;28;20080;-82
2023/02/21 10:11:34;;;;;;;4.40;3.72;;;;;;;;;;5028814;28;20053;-83
2023/02/21 10:14:20;;;;;;;5.40;4.25;;;;;;;;;;5034670;28;20061;-82
2023/02/21 10:16:47;;;;;;;7.00;3.80;;;;;;;;;;5065118;28;20099;-82
2023/02/21 10:19:21;;;;;;;5.13;3.85;;;;;;;;;;5065085;28;20087;-83
2023/02/21 10:21:49;;;;;;;;;;;;;;;;;;5065238;28;20049;-82
2023/02/21 10:24:26;;;;;;;3.53;3.22;;;;;;;;;;5048447;28;20012;-82
2023/02/21 10:26:59;;;;;;;5.07;3.38;;;;;;;;;;5064232;28;20056;-82
2023/02/21 10:29:33;;;;;;;3.90;3.50;;;;;;;;;;5065318;28;20087;-83
2023/02/21 10:32:03;;;;;;;4.82;3.80;;;;;;;;;;5065496;28;20555;-83
2023/02/21 10:34:31;;;;;;;6.50;3.28;;;;;;;;;;5067549;28;20049;-82
2023/02/21 10:37:11;;;;;;;6.13;3.35;;;;;;;;;;5065361;28;20045;-82
2023/02/21 10:39:42;;;;;;;10.35;3.88;;;;;;;;;;5067172;28;20053;-82
2023/02/21 10:42:13;;;;;;;5.10;3.88;;;;;;;;;;5065216;28;20056;-82
2023/02/21 10:44:41;;;;;;;4.10;3.70;;;;;;;;;;5066014;28;20053;-82
2023/02/21 10:47:15;;;;;;;6.85;4.00;;;;;;;;;;5067588;28;20056;-82
2023/02/21 10:49:49;;;;;;;4.05;3.72;;;;;;;;;;5066680;28;20057;-82
2023/02/21 10:52:22;;;;;;;4.22;3.63;;;;;;;;;;5066408;28;20048;-83
2023/02/21 10:54:59;;;;;;;5.68;3.38;;;;;;;;;;5068703;28;20112;-82
2023/02/21 10:57:27;;;;;;;4.18;3.13;;;;;;;;;;5076813;28;20041;-81
2023/02/21 10:59:55;;;;;;;4.72;3.08;;;;;;;;;;5075054;28;20129;-81
2023/02/21 11:02:28;;;;;;;7.32;3.65;;;;;;;;;;5065334;28;20053;-83
2023/02/21 11:05:06;;;;;;;4.13;3.70;;;;;;;;;;5064838;28;20060;-83
2023/02/21 11:07:34;;;;;;;13.10;4.05;;;;;;;;;;5064726;28;20049;-82
2023/02/21 11:10:01;;;;;;;6.30;3.58;;;;;;;;;;5064615;28;20412;-82
2023/02/21 11:12:30;;;;;;;4.35;3.55;;;;;;;;;;5065832;28;20076;-82
2023/02/21 11:14:58;;;;;;;5.25;3.53;;;;;;;;;;5047484;28;20063;-83
2023/02/21 11:17:27;;;;;;;4.53;3.20;;;;;;;;;;5047289;28;20067;-82
2023/02/21 11:19:57;;;;;;;4.28;3.65;;;;;;;;;;5063691;28;20045;-83
2023/02/21 11:22:26;;;;;;;4.25;3.72;;;;;;;;;;5064785;28;20045;-82
2023/02/21 11:24:58;;;;;;;3.55;3.25;;;;;;;;;;5065790;28;20500;-81
2023/02/21 11:27:27;;;;;;;4.32;3.78;;;;;;;;;;5064724;28;20059;-83
2023/02/21 11:29:54;;;;;;;5.68;3.67;;;;;;;;;;5065838;28;20070;-83
2023/02/21 11:32:31;;;;;;;4.72;3.95;;;;;;;;;;5063415;28;20113;-82
2023/02/21 11:35:03;;;;;;;4.35;3.95;;;;;;;;;;5060117;28;20606;-83
2023/02/21 11:37:31;;;;;;;6.10;4.50;;;;;;;;;;5063073;28;20132;-83
2023/02/21 11:39:59;;;;;;;4.72;4.05;;;;;;;;;;5063477;28;20056;-83
2023/02/21 11:42:31;;;;;;;9.00;3.80;;;;;;;;;;5064299;28;20091;-83
2023/02/21 11:45:08;;;;;;;4.35;4.05;;;;;;;;;;5065216;28;20133;-82
2023/02/21 11:47:41;;;;;;;5.20;4.25;;;;;;;;;;5047662;28;20131;-83
2023/02/21 11:50:25;;;;;;;10.98;3.65;;;;;;;;;;5063243;28;20040;-83
2023/02/21 11:53:05;;;;;;;7.38;4.22;;;;;;;;;;5064391;28;20052;-83
2023/02/21 11:55:33;;;;;;;4.90;3.72;;;;;;;;;;5063935;28;20069;-83
2023/02/21 11:58:06;;;;;;;12.35;3.88;;;;;;;;;;5064611;28;20057;-83
2023/02/21 12:00:39;;;;;;;4.95;3.47;;;;;;;;;;5064910;28;20052;-82
2023/02/21 12:03:06;;;;;;;;;;;;;;;;;;5064536;28;20109;-83
2023/02/21 12:05:57;;;;;;;9.63;3.42;;;;;;;;;;5048289;28;19927;-83
2023/02/21 12:08:45;;;;;;;6.30;3.30;;;;;;;;;;5064922;28;20045;-82
2023/02/21 12:11:22;;;;;;;5.85;3.00;;;;;;;;;;5064547;28;20067;-82
2023/02/21 12:14:08;;;;;;;4.82;3.38;;;;;;;;;;5059945;28;20109;-83
2023/02/21 12:16:54;;;;;;;7.40;3.58;;;;;;;;;;5045646;28;20076;-83
2023/02/21 12:19:22;;;;;;;4.40;4.00;;;;;;;;;;5027531;28;20052;-83
2023/02/21 12:22:07;;;;;;;3.67;3.22;;;;;;;;;;5044360;28;20041;-82
2023/02/21 12:24:43;;;;;;;3.47;3.17;;;;;;;;;;5028916;28;20072;-83
2023/02/21 12:27:26;;;;;;;4.70;3.08;;;;;;;;;;5027548;28;20080;-82
2023/02/21 12:30:12;;;;;;;7.15;3.45;;;;;;;;;;5044971;28;20084;-83
2023/02/21 12:32:48;;;;;;;7.72;3.67;;;;;;;;;;5050403;28;20029;-82
2023/02/21 12:35:26;;;;;;;8.88;6.03;;;;;;;;;;5029862;28;20457;-83
2023/02/21 12:38:13;;;;;;;4.97;2.60;;;;;;;;;;5030860;28;20064;-83
2023/02/21 12:40:59;;;;;;;11.13;3.30;;;;;;;;;;5028144;28;20107;-82
2023/02/21 12:43:46;;;;;;;5.63;3.15;;;;;;;;;;5027414;28;20106;-83
2023/02/21 12:46:28;;;;;;;5.43;2.90;;;;;;;;;;5030664;28;20136;-83
2023/02/21 12:49:05;;;;;;;3.15;2.60;;;;;;;;;;5038825;28;20069;-83
2023/02/21 12:51:36;;;;;;;2.47;2.30;;;;;;;;;;5046216;28;20083;-83
2023/02/21 12:54:06;;;;;;;5.22;2.80;;;;;;;;;;5044621;28;20486;-82
2023/02/21 12:56:37;;;;;;;2.63;2.20;;;;;;;;;;5044388;28;20053;-82
2023/02/21 12:59:05;;;;;;;4.65;2.08;;;;;;;;;;5043760;28;20049;-82
2023/02/21 13:01:33;;;;;;;2.65;2.38;;;;;;;;;;5018638;28;20581;-83
2023/02/21 13:04:15;;;;;;;2.42;2.22;;;;;;;;;;5034317;28;20160;-82
2023/02/21 13:07:02;;;;;;;4.30;2.25;;;;;;;;;;5016928;28;20164;-82
2023/02/21 13:09:36;;;;;;;4.18;2.65;;;;;;;;;;5016969;28;20100;-83
2023/02/21 13:12:23;;;;;;;5.95;2.30;;;;;;;;;;5016832;28;20053;-83
2023/02/21 13:14:55;;;;;;;4.57;2.40;;;;;;;;;;5034453;28;20072;-83
2023/02/21 13:17:22;;;;;;;2.65;2.20;;;;;;;;;;5016336;28;20480;-83
2023/02/21 13:19:52;;;;;;;2.53;1.85;;;;;;;;;;5017347;28;20053;-82
2023/02/21 13:22:38;;;;;;;2.40;1.50;;;;;;;;;;5017266;28;20055;-83
2023/02/21 13:25:06;;;;;;;3.30;1.75;;;;;;;;;;5034485;28;20053;-82
2023/02/21 13:27:48;;;;;;;1.30;1.30;;;;;;;;;;5016982;28;20057;-83
2023/02/21 13:30:18;;;;;;;2.15;1.60;;;;;;;;;;5034838;28;20053;-83
2023/02/21 13:32:50;;;;;;;2.85;1.80;;;;;;;;;;5017607;28;20480;-82
2023/02/21 13:35:20;;;;;;;2.20;1.63;;;;;;;;;;5017451;28;20103;-84
2023/02/21 13:38:07;;;;;;;1.65;1.55;;;;;;;;;;5034856;28;20053;-83
2023/02/21 13:40:36;;;;;;;2.65;1.60;;;;;;;;;;5034197;28;20049;-83
2023/02/21 13:43:10;;;;;;;5.22;1.83;;;;;;;;;;5016803;28;20048;-83
2023/02/21 13:45:38;;;;;;;30.80;18.40;;;;;;;;;;5033943;28;20061;-83
2023/02/21 13:48:05;;;;;;;9.60;5.63;;;;;;;;;;5016424;28;20448;-82
2023/02/21 13:50:39;;;;;;;8.52;6.45;;;;;;;;;;5016514;28;20378;-83
2023/02/21 13:53:06;;;;;;;;;;;;;;;;;;5016678;28;20425;-82
2023/02/21 13:55:34;;;;;;;5.70;2.90;;;;;;;;;;5016233;28;19935;-83
2023/02/21 13:58:03;;;;;;;10.00;3.13;;;;;;;;;;5016957;28;20057;-83
2023/02/21 14:00:31;;;;;;;9.25;5.03;;;;;;;;;;5016264;28;20057;-83
2023/02/21 14:03:01;;;;;;;3.15;2.42;;;;;;;;;;5037630;28;20085;-83
2023/02/21 14:05:44;;;;;;;5.97;2.00;;;;;;;;;;5020742;28;20498;-83
2023/02/21 14:08:25;;;;;;;1.90;1.80;;;;;;;;;;5020771;28;20045;-83
2023/02/21 14:10:54;;;;;;;8.25;4.30;;;;;;;;;;5020400;28;20054;-83
2023/02/21 14:13:21;;;;;;;5.25;3.47;;;;;;;;;;5019819;28;20482;-83
2023/02/21 14:15:51;;;;;;;7.57;2.45;;;;;;;;;;5037781;28;20045;-83
2023/02/21 14:18:25;;;;;;;3.92;2.00;;;;;;;;;;5020178;28;20050;-83
2023/02/21 14:20:54;;;;;;;3.03;1.92;;;;;;;;;;5037502;28;20053;-83
2023/02/21 14:23:23;;;;;;;1.70;1.60;;;;;;;;;;5019767;28;20045;-84
2023/02/21 14:25:55;;;;;;;2.72;1.42;;;;;;;;;;5037839;28;20128;-83
2023/02/21 14:28:44;;;;;;;3.25;1.88;;;;;;;;;;5020255;28;20548;-83
2023/02/21 14:31:12;;;;;;;2.42;2.08;;;;;;;;;;5019869;28;20064;-83
2023/02/21 14:33:40;;;;;;;5.05;2.28;;;;;;;;;;5020022;28;20076;-83
2023/02/21 14:36:08;;;;;;;4.30;2.05;;;;;;;;;;5028279;28;20049;-83
2023/02/21 14:38:39;;;;;;;5.65;2.10;;;;;;;;;;5039165;28;20061;-83
2023/02/21 14:41:19;;;;;;;3.22;2.03;;;;;;;;;;5049065;28;20045;-83
2023/02/21 14:44:19;;;;;;;1.98;1.67;;;;;;;;;;5019852;28;20060;-84
2023/02/21 14:46:55;;;;;;;2.58;1.75;;;;;;;;;;5012064;28;20045;-84
2023/02/21 14:49:34;;;;;;;10.30;2.53;;;;;;;;;;5037914;28;20067;-83
2023/02/21 14:52:07;;;;;;;6.75;1.80;;;;;;;;;;5018923;28;20045;-83
2023/02/21 14:55:00;;;;;;;15.82;2.40;;;;;;;;;;5019075;28;20046;-83
2023/02/21 14:57:46;;;;;;;7.25;2.30;;;;;;;;;;5019396;28;20049;-84
2023/02/21 15:00:19;;;;;;;2.50;2.00;;;;;;;;;;5019637;28;20057;-82
2023/02/21 15:02:46;;;;;;;;;;;;;;;;;;5037554;28;20469;-83
2023/02/21 15:05:26;;;;;;;3.25;1.92;;;;;;;;;;5018895;28;19925;-83
2023/02/21 15:07:53;;;;;;;5.70;1.88;;;;;;;;;;5035475;28;20045;-83
2023/02/21 15:10:20;;;;;;;6.13;2.05;;;;;;;;;;5037116;28;20088;-83
2023/02/21 15:12:49;;;;;;;5.07;2.10;;;;;;;;;;5035739;28;20087;-84
2023/02/21 15:15:26;;;;;;;3.35;2.15;;;;;;;;;;5035217;28;20061;-83
2023/02/21 15:18:04;;;;;;;2.35;1.98;;;;;;;;;;5018518;28;20045;-83
2023/02/21 15:20:34;;;;;;;4.45;2.58;;;;;;;;;;5036066;28;20064;-83
2023/02/21 15:23:28;;;;;;;4.68;2.10;;;;;;;;;;5018679;28;20104;-83
2023/02/21 15:25:57;;;;;;;2.25;2.05;;;;;;;;;;5018581;28;20056;-83
2023/02/21 15:28:25;;;;;;;4.78;2.03;;;;;;;;;;5035577;28;20139;-83
2023/02/21 15:30:57;;;;;;;2.47;2.03;;;;;;;;;;5035659;28;20071;-83
2023/02/21 15:33:26;;;;;;;2.55;2.38;;;;;;;;;;5035216;28;20069;-83
2023/02/21 15:35:59;;;;;;;6.25;4.10;;;;;;;;;;5018192;28;20057;-83
2023/02/21 15:38:32;;;;;;;7.88;4.03;;;;;;;;;;5035083;28;20056;-82
2023/02/21 15:41:18;;;;;;;11.43;10.25;;;;;;;;;;5018925;28;20053;-83
2023/02/21 15:44:01;;;;;;;11.25;8.68;;;;;;;;;;5036032;28;20080;-84
2023/02/21 15:46:32;;;;;;;55.83;30.60;;;;;;;;;;5018066;28;20053;-83
2023/02/21 15:49:00;;;;;;;6.75;4.68;;;;;;;;;;5035241;28;20394;-83
2023/02/21 15:51:28;;;;;;;8.75;4.40;;;;;;;;;;5035644;28;20132;-83
2023/02/21 15:54:15;;;;;;;6.40;4.45;;;;;;;;;;5018370;28;20081;-83
2023/02/21 15:56:42;;;;;;;7.18;4.75;;;;;;;;;;5018208;28;20081;-83
2023/02/21 15:59:20;;;;;;;10.45;4.35;;;;;;;;;;5017979;28;20080;-83
2023/02/21 16:02:06;;;;;;;7.20;5.20;;;;;;;;;;5035908;28;20053;-83
2023/02/21 16:04:38;;;;;;;5.35;3.50;;;;;;;;;;5017022;28;20124;-83
2023/02/21 16:07:17;;;;;;;6.22;3.60;;;;;;;;;;5035902;28;20049;-83
2023/02/21 16:09:46;;;;;;;2.95;2.70;;;;;;;;;;5034962;28;20055;-83
2023/02/21 16:12:13;;;;;;;5.45;4.05;;;;;;;;;;5017497;28;20391;-83
2023/02/21 16:14:40;;;;;;;6.88;3.15;;;;;;;;;;5028497;28;20061;-83
2023/02/21 16:17:26;;;;;;;3.13;2.92;;;;;;;;;;5054496;28;20051;-83
2023/02/21 16:19:57;;;;;;;4.47;3.30;;;;;;;;;;5054696;28;20072;-83
2023/02/21 16:22:33;;;;;;;3.13;2.70;;;;;;;;;;5054138;28;20075;-83
2023/02/21 16:25:18;;;;;;;3.40;3.10;;;;;;;;;;5054083;28;20102;-82
2023/02/21 16:27:50;;;;;;;4.47;3.20;;;;;;;;;;5071515;28;20136;-84
2023/02/21 16:30:18;;;;;;;3.05;2.83;;;;;;;;;;5075619;28;20188;-83
2023/02/21 16:32:46;;;;;;;4.90;3.13;;;;;;;;;;5054658;28;20045;-83
2023/02/21 16:35:15;;;;;;;3.50;3.03;;;;;;;;;;5053871;28;20506;-83
2023/02/21 16:37:43;;;;;;;2.70;2.50;;;;;;;;;;5055232;28;20081;-83
2023/02/21 16:40:15;;;;;;;3.22;2.92;;;;;;;;;;5053041;28;20072;-83
2023/02/21 16:42:42;;;;;;;2.80;2.60;;;;;;;;;;5053783;28;20051;-83
2023/02/21 16:45:09;;;;;;;4.72;2.85;;;;;;;;;;5055207;28;20098;-83
2023/02/21 16:47:37;;;;;;;4.25;3.00;;;;;;;;;;5055200;28;20103;-83
2023/02/21 16:50:04;;;;;;;3.40;3.00;;;;;;;;;;5053445;28;20053;-83
2023/02/21 16:52:31;;;;;;;5.60;2.95;;;;;;;;;;5054403;28;20049;-83
2023/02/21 16:54:59;;;;;;;5.30;3.90;;;;;;;;;;5037143;28;20067;-83
2023/02/21 16:57:26;;;;;;;8.73;3.58;;;;;;;;;;5054671;28;20140;-82
2023/02/21 16:59:53;;;;;;;3.80;2.72;;;;;;;;;;5053464;28;20051;-83
2023/02/21 17:02:23;;;;;;;4.65;3.83;;;;;;;;;;5054732;28;20083;-83
2023/02/21 17:04:50;;;;;;;5.82;4.78;;;;;;;;;;5036801;28;20052;-82
2023/02/21 17:07:19;;;;;;;6.07;4.85;;;;;;;;;;5053321;28;20401;-83
2023/02/21 17:09:46;;;;;;;7.70;4.75;;;;;;;;;;5054226;28;20056;-83
2023/02/21 17:12:13;;;;;;;6.30;4.90;;;;;;;;;;5054124;28;20469;-83
2023/02/21 17:14:41;;;;;;;5.15;4.57;;;;;;;;;;5052622;28;20060;-83
2023/02/21 17:17:08;;;;;;;9.50;5.07;;;;;;;;;;5053813;28;20045;-83